Time;durP1;ratioP1;P1;durP2;ratioP2;P2;SDS_P1;SDS_P2;PMS_P1;PMS_P2;Temp;Humidity;BMP_temperature;BMP_pressure;BME280_temperature;BME280_humidity;BME280_pressure;Samples;Min_cycle;Max_cycle;Signal;HPM_P1;HPM_P2
2023/07/22 00:02:03;;;;;;;22.83;10.40;;;;;;;;;;4894105;29;20060;-60
2023/07/22 00:04:29;;;;;;;23.20;11.13;;;;;;;;;;4894989;29;20063;-60
2023/07/22 00:06:56;;;;;;;25.97;11.63;;;;;;;;;;4908032;29;20430;-61
2023/07/22 00:09:22;;;;;;;23.47;10.47;;;;;;;;;;4912741;29;20056;-60
2023/07/22 00:11:49;;;;;;;22.97;11.83;;;;;;;;;;4912548;29;20055;-60
2023/07/22 00:14:15;;;;;;;22.97;11.23;;;;;;;;;;4912881;29;20059;-60
2023/07/22 00:16:42;;;;;;;23.60;12.17;;;;;;;;;;4913448;29;20048;-60
2023/07/22 00:19:08;;;;;;;27.20;12.53;;;;;;;;;;4913511;29;20067;-60
2023/07/22 00:21:34;;;;;;;23.30;11.33;;;;;;;;;;4913262;29;20060;-61
2023/07/22 00:24:00;;;;;;;28.53;13.07;;;;;;;;;;4913002;29;20088;-61
2023/07/22 00:26:27;;;;;;;24.20;11.40;;;;;;;;;;4913261;29;20052;-60
2023/07/22 00:28:53;;;;;;;32.47;12.33;;;;;;;;;;4913029;29;20044;-60
2023/07/22 00:31:19;;;;;;;26.93;11.83;;;;;;;;;;4913674;29;20111;-60
2023/07/22 00:33:45;;;;;;;30.40;13.33;;;;;;;;;;4913008;29;20059;-61
2023/07/22 00:36:11;;;;;;;25.50;13.40;;;;;;;;;;4912831;29;20044;-60
2023/07/22 00:38:37;;;;;;;29.77;13.07;;;;;;;;;;4913231;29;20558;-61
2023/07/22 00:41:07;;;;;;;28.23;12.63;;;;;;;;;;4913160;29;20048;-61
2023/07/22 00:43:33;;;;;;;31.10;12.73;;;;;;;;;;4913130;29;20054;-60
2023/07/22 00:45:59;;;;;;;28.43;12.77;;;;;;;;;;4912485;29;20036;-61
2023/07/22 00:48:25;;;;;;;30.03;13.03;;;;;;;;;;4912800;29;20052;-61
2023/07/22 00:50:51;;;;;;;30.20;13.53;;;;;;;;;;4912785;29;20051;-60
2023/07/22 00:53:18;;;;;;;29.17;13.70;;;;;;;;;;4912918;29;20051;-60
2023/07/22 00:55:45;;;;;;;33.17;14.13;;;;;;;;;;4912647;29;20106;-60
2023/07/22 00:58:11;;;;;;;29.90;13.03;;;;;;;;;;4912922;29;20107;-61
2023/07/22 01:00:37;;;;;;;33.63;15.33;;;;;;;;;;4912310;29;20051;-60
2023/07/22 01:03:04;;;;;;;29.57;14.50;;;;;;;;;;4912890;29;20044;-61
2023/07/22 01:05:30;;;;;;;27.93;13.83;;;;;;;;;;4911418;29;20052;-61
2023/07/22 01:07:57;;;;;;;28.23;14.67;;;;;;;;;;4910871;29;20051;-61
2023/07/22 01:10:23;;;;;;;27.17;12.33;;;;;;;;;;4912720;29;20082;-61
2023/07/22 01:12:49;;;;;;;31.53;13.93;;;;;;;;;;4912603;29;20040;-61
2023/07/22 01:15:15;;;;;;;28.20;12.47;;;;;;;;;;4912552;29;20047;-61
2023/07/22 01:17:41;;;;;;;25.43;12.80;;;;;;;;;;4912480;29;20052;-61
2023/07/22 01:20:09;;;;;;;29.00;14.53;;;;;;;;;;4912440;29;20432;-60
2023/07/22 01:22:36;;;;;;;25.37;13.27;;;;;;;;;;4911734;29;20084;-61
2023/07/22 01:25:03;;;;;;;32.40;12.60;;;;;;;;;;4912724;29;20112;-61
2023/07/22 01:27:29;;;;;;;25.93;11.83;;;;;;;;;;4912424;29;20112;-61
2023/07/22 01:29:55;;;;;;;27.10;12.87;;;;;;;;;;4911394;29;20051;-60
2023/07/22 01:32:21;;;;;;;36.50;13.83;;;;;;;;;;4912581;29;20490;-61
2023/07/22 01:34:47;;;;;;;33.43;14.90;;;;;;;;;;4912104;29;20096;-60
2023/07/22 01:37:13;;;;;;;28.83;13.70;;;;;;;;;;4912563;29;20091;-61
2023/07/22 01:39:39;;;;;;;26.57;12.97;;;;;;;;;;4911809;29;20044;-61
2023/07/22 01:42:06;;;;;;;31.97;13.47;;;;;;;;;;4912190;29;20051;-61
2023/07/22 01:44:32;;;;;;;32.53;14.13;;;;;;;;;;4911867;29;20920;-61
2023/07/22 01:46:58;;;;;;;28.53;12.57;;;;;;;;;;4912601;29;20048;-61
2023/07/22 01:49:26;;;;;;;32.40;14.00;;;;;;;;;;4912152;29;20056;-61
2023/07/22 01:51:52;;;;;;;30.17;12.37;;;;;;;;;;4912177;29;20139;-61
2023/07/22 01:54:18;;;;;;;30.87;13.37;;;;;;;;;;4912445;29;20466;-61
2023/07/22 01:56:44;;;;;;;30.17;14.03;;;;;;;;;;4910847;29;20052;-61
2023/07/22 01:59:10;;;;;;;37.20;14.17;;;;;;;;;;4911461;29;20103;-61
2023/07/22 02:01:36;;;;;;;30.00;13.97;;;;;;;;;;4911130;29;20048;-61
2023/07/22 02:04:02;;;;;;;30.23;13.97;;;;;;;;;;4912511;29;20415;-61
2023/07/22 02:06:28;;;;;;;27.47;12.67;;;;;;;;;;4912025;29;20044;-61
2023/07/22 02:08:55;;;;;;;28.33;13.23;;;;;;;;;;4911469;29;20044;-61
2023/07/22 02:11:21;;;;;;;28.43;13.87;;;;;;;;;;4911947;29;20048;-61
2023/07/22 02:13:47;;;;;;;27.07;13.13;;;;;;;;;;4912126;29;20674;-61
2023/07/22 02:16:13;;;;;;;33.30;14.37;;;;;;;;;;4894405;29;20422;-61
2023/07/22 02:18:40;;;;;;;29.30;13.80;;;;;;;;;;4911838;29;20434;-61
2023/07/22 02:21:06;;;;;;;29.87;14.37;;;;;;;;;;4894494;29;20111;-61
2023/07/22 02:23:32;;;;;;;30.37;13.73;;;;;;;;;;4912130;29;20082;-61
2023/07/22 02:25:58;;;;;;;30.27;15.63;;;;;;;;;;4912384;29;20051;-61
2023/07/22 02:28:25;;;;;;;33.63;14.83;;;;;;;;;;4912269;29;20051;-61
2023/07/22 02:30:53;;;;;;;32.83;14.17;;;;;;;;;;4911831;29;20354;-61
2023/07/22 02:33:19;;;;;;;32.67;14.67;;;;;;;;;;4912665;29;20116;-61
2023/07/22 02:35:45;;;;;;;28.17;14.23;;;;;;;;;;4915202;29;20055;-61
2023/07/22 02:38:11;;;;;;;32.47;14.40;;;;;;;;;;4915980;29;20071;-61
2023/07/22 02:40:38;;;;;;;36.03;16.03;;;;;;;;;;4915210;29;20391;-61
2023/07/22 02:43:06;;;;;;;38.83;16.53;;;;;;;;;;4914483;29;20039;-61
2023/07/22 02:45:32;;;;;;;37.53;16.60;;;;;;;;;;4914855;29;20044;-61
2023/07/22 02:47:58;;;;;;;36.07;15.73;;;;;;;;;;4914774;29;20075;-61
2023/07/22 02:50:25;;;;;;;36.57;16.37;;;;;;;;;;4915033;29;20056;-61
2023/07/22 02:52:51;;;;;;;33.43;15.43;;;;;;;;;;4915035;29;20112;-61
2023/07/22 02:55:20;;;;;;;39.60;16.50;;;;;;;;;;4915230;29;20048;-61
2023/07/22 02:57:47;;;;;;;34.10;15.70;;;;;;;;;;4914342;29;20051;-61
2023/07/22 03:00:13;;;;;;;37.67;15.10;;;;;;;;;;4915442;29;20048;-61
2023/07/22 03:02:40;;;;;;;37.40;17.30;;;;;;;;;;4915017;29;20051;-61
2023/07/22 03:05:09;;;;;;;35.17;16.67;;;;;;;;;;4914994;29;20107;-61
2023/07/22 03:07:36;;;;;;;31.33;15.53;;;;;;;;;;4914479;29;20051;-61
2023/07/22 03:10:02;;;;;;;35.83;16.07;;;;;;;;;;4915247;29;20048;-61
2023/07/22 03:12:28;;;;;;;34.87;15.87;;;;;;;;;;4914769;29;20058;-61
2023/07/22 03:14:54;;;;;;;36.63;15.67;;;;;;;;;;4915138;29;20486;-61
2023/07/22 03:17:20;;;;;;;35.07;15.97;;;;;;;;;;4914245;29;20083;-61
2023/07/22 03:19:47;;;;;;;36.10;16.07;;;;;;;;;;4914046;29;20135;-61
2023/07/22 03:22:16;;;;;;;32.57;15.93;;;;;;;;;;4898068;29;20481;-61
2023/07/22 03:24:42;;;;;;;36.33;16.23;;;;;;;;;;4913702;29;20068;-61
2023/07/22 03:27:08;;;;;;;35.33;16.60;;;;;;;;;;4914543;29;20498;-61
2023/07/22 03:29:34;;;;;;;32.30;15.70;;;;;;;;;;4914179;29;20044;-61
2023/07/22 03:32:00;;;;;;;36.97;16.47;;;;;;;;;;4914809;29;20044;-61
2023/07/22 03:34:30;;;;;;;32.63;15.17;;;;;;;;;;4914243;29;20108;-61
2023/07/22 03:36:56;;;;;;;35.63;17.17;;;;;;;;;;4914693;29;20051;-61
2023/07/22 03:39:22;;;;;;;36.93;16.60;;;;;;;;;;4914113;29;20139;-61
2023/07/22 03:41:48;;;;;;;33.33;16.20;;;;;;;;;;4914248;29;20048;-61
2023/07/22 03:44:14;;;;;;;36.63;16.23;;;;;;;;;;4914056;29;20052;-61
2023/07/22 03:46:40;;;;;;;33.90;16.60;;;;;;;;;;4911826;29;20071;-61
2023/07/22 03:49:06;;;;;;;36.03;15.80;;;;;;;;;;4912458;29;20169;-61
2023/07/22 03:51:33;;;;;;;29.57;15.83;;;;;;;;;;4913950;29;20099;-61
2023/07/22 03:53:59;;;;;;;34.73;17.00;;;;;;;;;;4914255;29;20059;-61
2023/07/22 03:56:25;;;;;;;34.43;15.60;;;;;;;;;;4913602;29;20502;-61
2023/07/22 03:58:51;;;;;;;33.53;15.23;;;;;;;;;;4913922;29;20040;-60
2023/07/22 04:01:19;;;;;;;33.60;16.83;;;;;;;;;;4913276;29;20055;-61
2023/07/22 04:03:45;;;;;;;31.07;15.07;;;;;;;;;;4913453;29;20505;-61
2023/07/22 04:06:11;;;;;;;36.47;17.03;;;;;;;;;;4914020;29;20079;-60
2023/07/22 04:08:37;;;;;;;33.57;15.50;;;;;;;;;;4913839;29;20217;-61
2023/07/22 04:11:03;;;;;;;35.77;16.33;;;;;;;;;;4913540;29;20424;-60
2023/07/22 04:13:29;;;;;;;31.90;16.37;;;;;;;;;;4913289;29;20040;-60
2023/07/22 04:15:55;;;;;;;30.07;15.07;;;;;;;;;;4908050;29;20036;-60
2023/07/22 04:18:21;;;;;;;30.23;15.77;;;;;;;;;;4902096;29;20414;-61
2023/07/22 04:20:48;;;;;;;31.00;15.43;;;;;;;;;;4913338;29;20498;-60
2023/07/22 04:23:14;;;;;;;33.17;15.20;;;;;;;;;;4913357;29;20055;-60
2023/07/22 04:25:40;;;;;;;31.13;15.07;;;;;;;;;;4913394;29;20550;-61
2023/07/22 04:28:07;;;;;;;36.93;15.33;;;;;;;;;;4912616;29;20091;-61
2023/07/22 04:30:33;;;;;;;32.80;16.40;;;;;;;;;;4913430;29;20058;-61
2023/07/22 04:32:59;;;;;;;37.57;17.10;;;;;;;;;;4913424;29;20135;-61
2023/07/22 04:35:25;;;;;;;36.63;17.13;;;;;;;;;;4913112;29;20051;-61
2023/07/22 04:37:51;;;;;;;35.30;16.37;;;;;;;;;;4912084;29;20423;-61
2023/07/22 04:40:18;;;;;;;32.27;16.30;;;;;;;;;;4911948;29;20115;-61
2023/07/22 04:42:44;;;;;;;33.13;15.60;;;;;;;;;;4912617;29;20083;-61
2023/07/22 04:45:11;;;;;;;28.67;14.73;;;;;;;;;;4912219;29;20051;-61
2023/07/22 04:47:38;;;;;;;33.43;16.67;;;;;;;;;;4913086;29;20499;-61
2023/07/22 04:50:08;;;;;;;38.10;15.57;;;;;;;;;;4912903;29;20056;-61
2023/07/22 04:52:34;;;;;;;30.43;16.40;;;;;;;;;;4913145;29;20407;-61
2023/07/22 04:55:00;;;;;;;32.87;15.47;;;;;;;;;;4912524;29;20055;-61
2023/07/22 04:57:26;;;;;;;33.07;16.17;;;;;;;;;;4912693;29;20043;-61
2023/07/22 04:59:52;;;;;;;35.50;15.57;;;;;;;;;;4912840;29;20055;-61
2023/07/22 05:02:18;;;;;;;39.70;16.70;;;;;;;;;;4912401;29;20047;-61
2023/07/22 05:04:44;;;;;;;28.47;14.37;;;;;;;;;;4912668;29;20425;-61
2023/07/22 05:07:10;;;;;;;28.27;14.80;;;;;;;;;;4912764;29;20051;-61
2023/07/22 05:09:37;;;;;;;24.90;13.87;;;;;;;;;;4912959;29;20147;-61
2023/07/22 05:12:03;;;;;;;27.43;14.73;;;;;;;;;;4912848;29;20174;-61
2023/07/22 05:14:29;;;;;;;31.33;16.23;;;;;;;;;;4911133;29;20089;-61
2023/07/22 05:16:55;;;;;;;27.57;14.70;;;;;;;;;;4912132;29;20601;-61
2023/07/22 05:19:21;;;;;;;30.10;15.63;;;;;;;;;;4912551;29;20074;-61
2023/07/22 05:21:47;;;;;;;27.73;15.10;;;;;;;;;;4912268;29;20110;-61
2023/07/22 05:24:13;;;;;;;28.43;15.10;;;;;;;;;;4912296;29;20084;-61
2023/07/22 05:26:39;;;;;;;30.20;15.27;;;;;;;;;;4912606;29;20050;-61
2023/07/22 05:29:05;;;;;;;30.93;14.97;;;;;;;;;;4910812;29;20052;-61
2023/07/22 05:31:31;;;;;;;33.10;15.87;;;;;;;;;;4910603;29;20084;-62
2023/07/22 05:33:58;;;;;;;24.00;14.83;;;;;;;;;;4911020;29;20118;-60
2023/07/22 05:36:24;;;;;;;33.50;16.00;;;;;;;;;;4910997;29;20401;-60
2023/07/22 05:38:50;;;;;;;29.70;15.80;;;;;;;;;;4912073;29;20387;-60
2023/07/22 05:41:16;;;;;;;34.03;16.73;;;;;;;;;;4912411;29;20048;-59
2023/07/22 05:43:42;;;;;;;34.40;17.17;;;;;;;;;;4911930;29;20040;-60
2023/07/22 05:46:08;;;;;;;29.33;17.93;;;;;;;;;;4911741;29;20051;-60
2023/07/22 05:48:34;;;;;;;30.87;18.37;;;;;;;;;;4911638;29;20079;-61
2023/07/22 05:51:00;;;;;;;32.43;18.10;;;;;;;;;;4912383;29;20048;-60
2023/07/22 05:53:26;;;;;;;34.23;18.83;;;;;;;;;;4911280;29;20463;-60
2023/07/22 05:55:52;;;;;;;35.20;18.43;;;;;;;;;;4912178;29;20048;-60
2023/07/22 05:58:18;;;;;;;37.57;19.67;;;;;;;;;;4911972;29;20092;-60
2023/07/22 06:00:46;;;;;;;35.67;19.83;;;;;;;;;;4911718;29;20422;-60
2023/07/22 06:03:12;;;;;;;35.60;19.50;;;;;;;;;;4911952;29;20415;-61
2023/07/22 06:05:38;;;;;;;36.13;19.83;;;;;;;;;;4912104;29;20481;-60
2023/07/22 06:08:05;;;;;;;34.63;19.50;;;;;;;;;;4896436;29;20076;-60
2023/07/22 06:10:31;;;;;;;38.67;20.50;;;;;;;;;;4896598;29;20459;-60
2023/07/22 06:12:57;;;;;;;38.40;19.80;;;;;;;;;;4896447;29;20048;-60
2023/07/22 06:15:23;;;;;;;39.90;21.03;;;;;;;;;;4896464;29;20621;-61
2023/07/22 06:17:49;;;;;;;44.90;22.43;;;;;;;;;;4896583;29;20052;-61
2023/07/22 06:20:15;;;;;;;52.47;25.73;;;;;;;;;;4896569;29;20056;-61
2023/07/22 06:22:41;;;;;;;49.93;24.23;;;;;;;;;;4896485;29;20052;-62
2023/07/22 06:25:07;;;;;;;53.73;25.63;;;;;;;;;;4896036;29;20521;-63
2023/07/22 06:27:35;;;;;;;50.73;24.07;;;;;;;;;;4896507;29;20049;-63
2023/07/22 06:30:01;;;;;;;48.77;24.13;;;;;;;;;;4896447;29;20049;-64
2023/07/22 06:32:29;;;;;;;52.30;24.80;;;;;;;;;;4896268;29;20140;-63
2023/07/22 06:34:56;;;;;;;55.63;24.50;;;;;;;;;;4896158;29;20048;-64
2023/07/22 06:37:22;;;;;;;58.37;26.10;;;;;;;;;;4895843;29;20399;-63
2023/07/22 06:39:48;;;;;;;63.80;27.03;;;;;;;;;;4906502;29;20138;-63
2023/07/22 06:42:14;;;;;;;50.87;24.60;;;;;;;;;;4914838;29;20499;-62
2023/07/22 06:44:40;;;;;;;50.67;23.97;;;;;;;;;;4914589;29;20040;-63
2023/07/22 06:47:06;;;;;;;49.10;23.93;;;;;;;;;;4914371;29;20055;-62
2023/07/22 06:49:32;;;;;;;42.27;22.53;;;;;;;;;;4897549;29;20055;-62
2023/07/22 06:51:58;;;;;;;45.53;22.53;;;;;;;;;;4915203;29;20048;-62
2023/07/22 06:54:24;;;;;;;38.90;20.17;;;;;;;;;;4914710;29;20498;-61
2023/07/22 06:56:50;;;;;;;41.80;21.53;;;;;;;;;;4914096;29;20048;-61
2023/07/22 06:59:16;;;;;;;41.37;20.73;;;;;;;;;;4914506;29;20516;-63
2023/07/22 07:01:42;;;;;;;44.27;21.43;;;;;;;;;;4914733;29;20048;-63
2023/07/22 07:04:08;;;;;;;34.80;21.27;;;;;;;;;;4914733;29;20058;-63
2023/07/22 07:06:34;;;;;;;34.53;20.43;;;;;;;;;;4914880;29;20048;-63
2023/07/22 07:09:00;;;;;;;38.37;20.37;;;;;;;;;;4913865;29;20044;-63
2023/07/22 07:11:26;;;;;;;34.80;20.80;;;;;;;;;;4914595;29;20044;-62
2023/07/22 07:13:52;;;;;;;36.10;20.53;;;;;;;;;;4914110;29;20076;-62
2023/07/22 07:16:25;;;;;;;31.30;17.93;;;;;;;;;;4914631;29;20414;-61
2023/07/22 07:18:52;;;;;;;37.60;19.95;;;;;;;;;;4912325;29;20060;-61
2023/07/22 07:21:18;;;;;;;31.97;19.03;;;;;;;;;;4911709;29;20052;-61
2023/07/22 07:23:44;;;;;;;33.50;20.23;;;;;;;;;;4913250;29;20055;-62
2023/07/22 07:26:10;;;;;;;34.77;18.63;;;;;;;;;;4913196;29;20515;-62
2023/07/22 07:28:36;;;;;;;30.03;18.07;;;;;;;;;;4917518;29;20044;-61
2023/07/22 07:31:02;;;;;;;31.60;18.20;;;;;;;;;;4914619;29;20107;-61
2023/07/22 07:33:29;;;;;;;30.93;17.67;;;;;;;;;;4914526;29;20108;-61
2023/07/22 07:35:55;;;;;;;29.00;17.57;;;;;;;;;;4914602;29;20091;-61
2023/07/22 07:38:21;;;;;;;24.10;16.77;;;;;;;;;;4926859;29;20091;-61
2023/07/22 07:40:47;;;;;;;28.73;17.40;;;;;;;;;;4924083;29;20598;-61
2023/07/22 07:43:13;;;;;;;28.67;17.13;;;;;;;;;;4906546;29;20134;-62
2023/07/22 07:45:39;;;;;;;27.33;17.47;;;;;;;;;;4914233;29;20146;-61
2023/07/22 07:48:06;;;;;;;24.03;16.77;;;;;;;;;;4914589;29;20135;-61
2023/07/22 07:50:33;;;;;;;21.70;15.40;;;;;;;;;;4914190;29;20051;-61
2023/07/22 07:52:59;;;;;;;23.03;15.20;;;;;;;;;;4914097;29;20597;-61
2023/07/22 07:55:25;;;;;;;24.77;16.53;;;;;;;;;;4914029;29;20421;-61
2023/07/22 07:57:51;;;;;;;23.60;15.97;;;;;;;;;;4914425;29;20063;-61
2023/07/22 08:00:17;;;;;;;25.13;16.40;;;;;;;;;;4914494;29;20092;-62
2023/07/22 08:02:43;;;;;;;23.47;15.63;;;;;;;;;;4914008;29;20127;-61
2023/07/22 08:05:10;;;;;;;23.07;15.77;;;;;;;;;;4913849;29;20048;-61
2023/07/22 08:07:36;;;;;;;23.53;14.77;;;;;;;;;;4914276;29;20040;-61
2023/07/22 08:10:04;;;;;;;25.03;16.20;;;;;;;;;;4914182;29;20048;-61
2023/07/22 08:12:30;;;;;;;23.73;15.27;;;;;;;;;;4914042;29;20258;-61
2023/07/22 08:14:56;;;;;;;19.23;14.40;;;;;;;;;;4913516;29;20070;-60
2023/07/22 08:17:22;;;;;;;23.60;15.43;;;;;;;;;;4913591;29;20048;-60
2023/07/22 08:19:48;;;;;;;22.40;14.93;;;;;;;;;;4913580;29;20052;-61
2023/07/22 08:22:15;;;;;;;25.77;16.57;;;;;;;;;;4913832;29;20056;-61
2023/07/22 08:24:41;;;;;;;24.73;14.80;;;;;;;;;;4896507;29;20044;-60
2023/07/22 08:27:07;;;;;;;24.87;14.57;;;;;;;;;;4913614;29;20059;-60
2023/07/22 08:29:33;;;;;;;19.17;13.03;;;;;;;;;;4913136;29;20301;-60
2023/07/22 08:31:59;;;;;;;19.57;13.40;;;;;;;;;;4925666;29;20090;-60
2023/07/22 08:34:25;;;;;;;21.33;13.20;;;;;;;;;;4914555;29;20048;-61
2023/07/22 08:36:51;;;;;;;26.13;14.43;;;;;;;;;;4911775;29;20055;-61
2023/07/22 08:39:17;;;;;;;37.40;16.83;;;;;;;;;;4912929;29;20090;-61
2023/07/22 08:41:49;;;;;;;27.07;16.57;;;;;;;;;;4910464;29;20044;-64
2023/07/22 08:44:18;;;;;;;25.33;15.97;;;;;;;;;;4912963;29;20056;-64
2023/07/22 08:46:45;;;;;;;36.90;19.00;;;;;;;;;;4912472;29;20044;-64
2023/07/22 08:49:11;;;;;;;26.17;16.87;;;;;;;;;;4912871;29;20048;-65
2023/07/22 08:51:37;;;;;;;28.63;16.67;;;;;;;;;;4912666;29;20457;-64
2023/07/22 08:54:03;;;;;;;25.40;14.67;;;;;;;;;;4912612;29;20395;-64
2023/07/22 08:56:29;;;;;;;37.03;18.87;;;;;;;;;;4912242;29;20075;-64
2023/07/22 08:58:56;;;;;;;29.60;17.07;;;;;;;;;;4912791;29;20044;-65
2023/07/22 09:01:22;;;;;;;43.27;20.83;;;;;;;;;;4912622;29;20079;-65
2023/07/22 09:03:52;;;;;;;42.97;19.07;;;;;;;;;;4912377;29;20060;-65
2023/07/22 09:06:19;;;;;;;28.80;15.87;;;;;;;;;;4912599;29;20502;-65
2023/07/22 09:08:45;;;;;;;29.50;16.03;;;;;;;;;;4911778;29;20067;-65
2023/07/22 09:11:12;;;;;;;19.73;12.73;;;;;;;;;;4911342;29;20151;-64
2023/07/22 09:13:40;;;;;;;210.10;23.90;;;;;;;;;;4910865;29;20517;-64
2023/07/22 09:16:07;;;;;;;89.67;17.63;;;;;;;;;;4910432;29;20112;-64
2023/07/22 09:18:34;;;;;;;86.23;25.70;;;;;;;;;;4911614;29;20060;-62
2023/07/22 09:21:00;;;;;;;136.57;36.43;;;;;;;;;;4911162;29;20048;-62
2023/07/22 09:23:33;;;;;;;45.57;20.43;;;;;;;;;;4910365;29;20048;-63
2023/07/22 09:26:08;;;;;;;83.05;27.58;;;;;;;;;;4911644;29;20088;-62
2023/07/22 09:28:54;;;;;;;149.33;38.93;;;;;;;;;;4911831;29;20052;-63
2023/07/22 09:31:24;;;;;;;83.27;28.63;;;;;;;;;;4911165;29;20143;-63
2023/07/22 09:33:51;;;;;;;37.33;17.93;;;;;;;;;;4911126;29;20502;-64
2023/07/22 09:36:17;;;;;;;33.03;16.20;;;;;;;;;;4912300;29;20059;-64
2023/07/22 09:38:43;;;;;;;59.40;21.47;;;;;;;;;;4912227;29;20100;-64
2023/07/22 09:41:09;;;;;;;40.47;18.37;;;;;;;;;;4911961;29;20052;-64
2023/07/22 09:43:38;;;;;;;20.77;12.63;;;;;;;;;;4913482;29;20490;-64
2023/07/22 09:46:11;;;;;;;21.27;11.83;;;;;;;;;;4915472;29;20103;-64
2023/07/22 09:48:45;;;;;;;50.70;19.73;;;;;;;;;;4914667;29;20139;-64
2023/07/22 09:51:14;;;;;;;39.80;17.87;;;;;;;;;;4916354;29;20131;-64
2023/07/22 09:53:44;;;;;;;47.40;18.77;;;;;;;;;;4915502;29;20044;-63
2023/07/22 09:56:10;;;;;;;28.93;14.90;;;;;;;;;;4915926;29;21387;-64
2023/07/22 09:58:37;;;;;;;31.23;14.73;;;;;;;;;;4898251;29;20052;-63
2023/07/22 10:01:03;;;;;;;56.67;22.07;;;;;;;;;;4915933;29;20047;-63
2023/07/22 10:03:30;;;;;;;63.30;21.93;;;;;;;;;;4913570;29;20052;-63
2023/07/22 10:05:58;;;;;;;88.23;25.60;;;;;;;;;;4915895;29;20056;-63
2023/07/22 10:08:24;;;;;;;262.30;55.43;;;;;;;;;;4915003;29;20608;-63
2023/07/22 10:10:52;;;;;;;70.63;26.00;;;;;;;;;;4915153;29;20795;-64
2023/07/22 10:13:18;;;;;;;40.13;18.33;;;;;;;;;;4915155;29;20071;-64
2023/07/22 10:15:45;;;;;;;78.93;24.60;;;;;;;;;;4914159;29;20055;-64
2023/07/22 10:18:12;;;;;;;53.43;20.10;;;;;;;;;;4914462;29;20044;-63
2023/07/22 10:20:39;;;;;;;45.40;18.60;;;;;;;;;;4913244;29;20060;-63
2023/07/22 10:23:06;;;;;;;79.17;25.43;;;;;;;;;;4914322;29;20052;-63
2023/07/22 10:25:32;;;;;;;202.50;45.50;;;;;;;;;;4914934;29;20072;-64
2023/07/22 10:27:58;;;;;;;213.10;48.33;;;;;;;;;;4898223;29;20509;-63
2023/07/22 10:30:24;;;;;;;289.60;58.20;;;;;;;;;;4913866;29;20551;-63
2023/07/22 10:32:52;;;;;;;35.40;16.83;;;;;;;;;;4914635;29;20115;-63
2023/07/22 10:35:23;;;;;;;26.40;13.70;;;;;;;;;;4914380;29;20091;-64
2023/07/22 10:37:49;;;;;;;25.10;15.10;;;;;;;;;;4913689;29;20055;-63
2023/07/22 10:40:24;;;;;;;29.57;15.87;;;;;;;;;;4915083;29;20070;-63
2023/07/22 10:43:01;;;;;;;30.27;16.27;;;;;;;;;;4914827;29;20056;-63
2023/07/22 10:45:31;;;;;;;27.57;15.47;;;;;;;;;;4913310;29;20052;-64
2023/07/22 10:48:01;;;;;;;25.63;15.33;;;;;;;;;;4914907;29;20043;-63
2023/07/22 10:50:38;;;;;;;25.17;15.63;;;;;;;;;;4913080;29;20103;-63
2023/07/22 10:53:04;;;;;;;36.93;17.37;;;;;;;;;;4914523;29;20529;-63
2023/07/22 10:55:30;;;;;;;30.57;15.23;;;;;;;;;;4914208;29;20388;-63
2023/07/22 10:58:03;;;;;;;30.80;16.10;;;;;;;;;;4914123;29;20040;-63
2023/07/22 11:00:30;;;;;;;20.85;11.63;;;;;;;;;;4896860;29;20462;-63
2023/07/22 11:03:15;;;;;;;14.43;9.47;;;;;;;;;;4913563;29;20415;-63
2023/07/22 11:05:49;;;;;;;25.77;13.77;;;;;;;;;;4913865;29;20135;-63
2023/07/22 11:08:15;;;;;;;26.47;14.97;;;;;;;;;;4914012;29;20044;-64
2023/07/22 11:10:53;;;;;;;33.60;18.40;;;;;;;;;;4913810;29;20399;-63
2023/07/22 11:13:19;;;;;;;32.70;19.07;;;;;;;;;;4914330;29;20183;-64
2023/07/22 11:15:48;;;;;;;33.47;19.97;;;;;;;;;;4913620;29;20142;-63
2023/07/22 11:18:14;;;;;;;40.47;21.63;;;;;;;;;;4913606;29;20274;-63
2023/07/22 11:20:40;;;;;;;27.03;16.93;;;;;;;;;;4913915;29;20181;-63
2023/07/22 11:23:06;;;;;;;39.97;21.30;;;;;;;;;;4912955;29;20051;-63
2023/07/22 11:25:34;;;;;;;29.47;17.97;;;;;;;;;;4914047;29;20096;-63
2023/07/22 11:28:00;;;;;;;41.93;22.83;;;;;;;;;;4897039;29;20048;-63
2023/07/22 11:30:27;;;;;;;31.50;19.20;;;;;;;;;;4913066;29;20055;-63
2023/07/22 11:32:53;;;;;;;35.30;19.83;;;;;;;;;;4913740;29;20506;-63
2023/07/22 11:35:19;;;;;;;33.27;19.37;;;;;;;;;;4912647;29;20067;-63
2023/07/22 11:37:45;;;;;;;32.43;19.27;;;;;;;;;;4913543;29;20570;-64
2023/07/22 11:40:13;;;;;;;38.83;23.63;;;;;;;;;;4897108;29;20184;-64
2023/07/22 11:42:39;;;;;;;34.40;22.50;;;;;;;;;;4895851;29;20514;-63
2023/07/22 11:45:06;;;;;;;31.23;21.80;;;;;;;;;;4912683;29;20198;-64
2023/07/22 11:47:32;;;;;;;27.63;19.57;;;;;;;;;;4913366;29;20071;-64
2023/07/22 11:49:58;;;;;;;37.57;23.33;;;;;;;;;;4913295;29;20044;-64
2023/07/22 11:52:24;;;;;;;36.63;21.70;;;;;;;;;;4913179;29;20107;-64
2023/07/22 11:54:50;;;;;;;27.07;19.53;;;;;;;;;;4911826;29;20048;-64
2023/07/22 11:57:17;;;;;;;30.10;18.80;;;;;;;;;;4912085;29;20059;-64
2023/07/22 11:59:53;;;;;;;32.03;20.90;;;;;;;;;;4913165;29;20523;-63
2023/07/22 12:02:23;;;;;;;22.13;16.43;;;;;;;;;;4913245;29;20044;-64
2023/07/22 12:04:53;;;;;;;24.77;16.60;;;;;;;;;;4912301;29;20846;-63
2023/07/22 12:07:24;;;;;;;19.83;15.00;;;;;;;;;;4912336;29;20059;-63
2023/07/22 12:09:50;;;;;;;28.07;17.27;;;;;;;;;;4912975;29;20047;-63
2023/07/22 12:12:16;;;;;;;22.10;16.17;;;;;;;;;;4912755;29;20044;-63
2023/07/22 12:14:42;;;;;;;23.13;17.43;;;;;;;;;;4912810;29;20407;-63
2023/07/22 12:17:10;;;;;;;30.20;18.90;;;;;;;;;;4911205;29;20067;-64
2023/07/22 12:19:36;;;;;;;26.13;18.30;;;;;;;;;;4911928;29;20059;-63
2023/07/22 12:22:02;;;;;;;26.77;18.10;;;;;;;;;;4912967;29;20048;-63
2023/07/22 12:24:29;;;;;;;17.63;14.60;;;;;;;;;;4912814;29;20103;-63
2023/07/22 12:26:55;;;;;;;26.10;18.27;;;;;;;;;;4894335;29;20102;-63
2023/07/22 12:29:22;;;;;;;18.47;14.33;;;;;;;;;;4912868;29;20056;-63
2023/07/22 12:31:48;;;;;;;21.67;16.33;;;;;;;;;;4911491;29;20052;-63
2023/07/22 12:34:14;;;;;;;23.37;16.07;;;;;;;;;;4913027;29;20184;-63
2023/07/22 12:36:41;;;;;;;20.13;13.23;;;;;;;;;;4912294;29;20123;-63
2023/07/22 12:39:07;;;;;;;15.43;11.03;;;;;;;;;;4910218;29;20277;-63
2023/07/22 12:41:33;;;;;;;14.47;11.83;;;;;;;;;;4912586;29;20036;-63
2023/07/22 12:43:59;;;;;;;18.47;11.13;;;;;;;;;;4912866;29;20048;-63
2023/07/22 12:46:25;;;;;;;18.37;11.90;;;;;;;;;;4912470;29;20462;-63
2023/07/22 12:48:51;;;;;;;24.80;15.63;;;;;;;;;;4912484;29;20052;-63
2023/07/22 12:51:17;;;;;;;20.77;14.63;;;;;;;;;;4912819;29;20052;-63
2023/07/22 12:53:43;;;;;;;23.20;15.50;;;;;;;;;;4912646;29;20127;-62
2023/07/22 12:56:09;;;;;;;26.90;17.40;;;;;;;;;;4912628;29;20055;-63
2023/07/22 12:58:35;;;;;;;23.60;14.37;;;;;;;;;;4912706;29;20134;-63
2023/07/22 13:01:01;;;;;;;20.37;12.80;;;;;;;;;;4911870;29;20067;-64
2023/07/22 13:03:27;;;;;;;22.63;15.17;;;;;;;;;;4911992;29;20111;-64
2023/07/22 13:05:53;;;;;;;15.93;12.03;;;;;;;;;;4911449;29;20111;-65
2023/07/22 13:08:19;;;;;;;31.47;18.50;;;;;;;;;;4912450;29;20047;-64
2023/07/22 13:10:47;;;;;;;19.00;12.93;;;;;;;;;;4911280;29;20099;-64
2023/07/22 13:13:12;;;;;;;26.27;17.30;;;;;;;;;;4909191;29;20443;-65
2023/07/22 13:15:38;;;;;;;28.40;16.90;;;;;;;;;;4908114;29;20199;-64
2023/07/22 13:18:04;;;;;;;24.30;14.77;;;;;;;;;;4911581;29;20048;-65
2023/07/22 13:20:30;;;;;;;27.33;16.60;;;;;;;;;;4912331;29;20048;-64
2023/07/22 13:22:57;;;;;;;27.93;18.13;;;;;;;;;;4911719;29;20063;-64
2023/07/22 13:25:23;;;;;;;25.20;16.37;;;;;;;;;;4912215;29;20226;-64
2023/07/22 13:27:49;;;;;;;22.27;15.90;;;;;;;;;;4912315;29;20048;-63
2023/07/22 13:30:15;;;;;;;23.40;14.83;;;;;;;;;;4912088;29;20044;-63
2023/07/22 13:32:41;;;;;;;22.63;15.10;;;;;;;;;;4911295;29;20462;-64
2023/07/22 13:35:09;;;;;;;19.03;15.53;;;;;;;;;;4911374;29;20062;-63
2023/07/22 13:37:35;;;;;;;23.53;16.30;;;;;;;;;;4911823;29;20495;-63
2023/07/22 13:40:01;;;;;;;23.00;15.83;;;;;;;;;;4911425;29;20511;-64
2023/07/22 13:42:27;;;;;;;27.10;16.13;;;;;;;;;;4910284;29;20052;-63
2023/07/22 13:44:53;;;;;;;26.17;16.20;;;;;;;;;;4911515;29;20044;-63
2023/07/22 13:47:19;;;;;;;19.90;14.73;;;;;;;;;;4912008;29;20080;-63
2023/07/22 13:49:45;;;;;;;20.73;15.83;;;;;;;;;;4919722;29;20050;-64
2023/07/22 13:52:11;;;;;;;23.53;16.50;;;;;;;;;;4929807;29;20040;-64
2023/07/22 13:54:37;;;;;;;16.37;13.77;;;;;;;;;;4911132;29;20115;-64
2023/07/22 13:57:03;;;;;;;14.13;11.43;;;;;;;;;;4911111;29;20048;-64
2023/07/22 13:59:29;;;;;;;15.27;12.67;;;;;;;;;;4910651;29;20100;-64
2023/07/22 14:01:55;;;;;;;19.57;13.03;;;;;;;;;;4923968;29;20806;-64
2023/07/22 14:04:21;;;;;;;20.80;13.23;;;;;;;;;;4921802;29;20050;-64
2023/07/22 14:06:47;;;;;;;19.57;13.87;;;;;;;;;;4917545;29;20051;-64
2023/07/22 14:09:13;;;;;;;18.90;13.13;;;;;;;;;;4910973;29;20468;-64
2023/07/22 14:11:38;;;;;;;20.83;15.60;;;;;;;;;;4910634;29;20052;-65
2023/07/22 14:14:04;;;;;;;23.33;15.43;;;;;;;;;;4910538;29;20048;-64